createdAt,value
2019-05-11T00:03:58.457Z,101015.75
2019-05-11T00:09:07.561Z,101015.75
2019-05-11T00:14:14.457Z,101028.46
2019-05-11T00:19:21.459Z,101028.46
2019-05-11T00:24:29.598Z,101027.91
2019-05-11T00:29:42.480Z,101030.99
2019-05-11T00:34:49.421Z,101026.31
2019-05-11T00:39:56.448Z,101021.61
2019-05-11T00:45:03.546Z,101019.69
2019-05-11T00:50:12.664Z,101022.73
2019-05-11T00:55:20.620Z,101010.45
2019-05-11T01:00:29.478Z,101010.42
2019-05-11T01:05:36.459Z,101002.63
2019-05-11T01:10:43.563Z,101002.91
2019-05-11T01:15:50.455Z,100995.12
2019-05-11T01:20:57.457Z,100987.92
2019-05-11T01:26:04.559Z,100993.29
2019-05-11T01:31:11.573Z,100983.81
2019-05-11T01:36:18.458Z,100983.81
2019-05-11T01:41:25.577Z,100988.12
2019-05-11T01:46:32.438Z,101008.55
2019-05-11T01:51:39.446Z,101008.55
2019-05-11T01:56:46.580Z,101005.54
2019-05-11T02:01:54.840Z,100991.22
2019-05-11T02:07:01.610Z,100991.22
2019-05-11T02:12:08.492Z,100972.95
2019-05-11T02:17:17.252Z,100972.95
2019-05-11T02:22:24.444Z,100965.77
2019-05-11T02:27:31.451Z,100960.27
2019-05-11T02:32:38.495Z,100954.20
2019-05-11T02:37:46.464Z,100952.81
2019-05-11T02:42:53.450Z,100955.00
2019-05-11T02:48:00.446Z,100955.00
2019-05-11T02:53:08.227Z,100963.61
2019-05-11T02:58:15.437Z,100969.69
2019-05-11T03:03:22.431Z,100969.69
2019-05-11T03:08:29.479Z,100983.52
2019-05-11T03:13:36.448Z,100987.94
2019-05-11T03:18:43.468Z,100997.91
2019-05-11T03:23:50.445Z,100994.60
2019-05-11T03:28:57.439Z,101003.45
2019-05-11T03:34:04.475Z,101003.45
2019-05-11T03:39:11.441Z,101006.22
2019-05-11T03:44:18.485Z,101022.83
2019-05-11T03:49:25.447Z,101014.53
2019-05-11T03:54:32.564Z,101014.53
2019-05-11T03:59:39.563Z,101000.66
2019-05-11T04:04:46.556Z,101000.91
2019-05-11T04:09:53.450Z,101002.30
2019-05-11T04:15:00.557Z,101002.30
2019-05-11T04:20:08.028Z,101030.27
2019-05-11T04:25:16.102Z,101030.27
2019-05-11T04:30:23.544Z,101025.48
2019-05-11T04:35:31.331Z,101025.48
2019-05-11T04:40:37.311Z,101022.05
2019-05-11T04:45:44.451Z,101016.63
2019-05-11T04:50:51.446Z,101007.23
2019-05-11T04:55:59.394Z,101007.56
2019-05-11T05:01:06.431Z,101008.58
2019-05-11T05:06:24.903Z,100999.59
2019-05-11T05:11:22.432Z,101000.31
2019-05-11T05:16:31.471Z,101005.11
2019-05-11T05:21:38.546Z,100998.69
2019-05-11T05:26:45.495Z,101008.42
2019-05-11T05:31:52.431Z,101005.86
2019-05-11T05:36:59.459Z,101002.69
2019-05-11T05:42:06.514Z,101003.11
2019-05-11T05:47:13.467Z,100999.82
2019-05-11T05:52:20.459Z,100997.56
2019-05-11T05:57:27.461Z,100997.56
2019-05-11T06:02:34.448Z,100988.66
2019-05-11T06:07:43.425Z,100995.98
2019-05-11T06:12:51.590Z,101005.95
2019-05-11T06:18:00.574Z,101007.20
2019-05-11T06:23:07.475Z,101007.20
2019-05-11T06:28:14.568Z,101010.14
2019-05-11T06:33:23.443Z,101011.97
2019-05-11T06:38:30.511Z,101002.50
2019-05-11T06:43:37.442Z,101007.61
2019-05-11T06:48:46.455Z,101011.79
2019-05-11T06:53:53.446Z,101002.31
2019-05-11T06:59:00.449Z,100999.19
2019-05-11T07:04:07.500Z,100997.54
2019-05-11T07:09:14.452Z,100997.59
2019-05-11T07:14:21.687Z,101001.17
2019-05-11T07:19:28.591Z,100998.22
2019-05-11T07:24:36.631Z,100995.12
2019-05-11T07:29:43.567Z,100978.86
2019-05-11T07:34:50.668Z,100978.86
2019-05-11T07:39:58.162Z,100984.70
2019-05-11T07:45:09.620Z,100984.70
2019-05-11T07:50:18.204Z,100976.63
2019-05-11T07:55:24.304Z,100976.63
2019-05-11T08:00:31.469Z,100975.41
2019-05-11T08:05:38.693Z,100984.19
2019-05-11T08:10:48.122Z,100984.36
2019-05-11T08:15:54.866Z,100981.25
2019-05-11T08:21:01.707Z,100971.27
2019-05-11T08:26:08.609Z,100964.66
2019-05-11T08:31:15.573Z,100965.34
2019-05-11T08:36:22.545Z,100963.66
2019-05-11T08:41:29.551Z,100963.66
2019-05-11T08:46:38.624Z,100952.63
2019-05-11T08:51:47.665Z,100954.48
2019-05-11T08:56:54.454Z,100954.48
2019-05-11T09:02:02.048Z,100956.81
2019-05-11T09:07:09.344Z,100948.77
2019-05-11T09:12:18.321Z,100941.45
2019-05-11T09:17:25.455Z,100938.47
2019-05-11T09:22:32.577Z,100937.41
2019-05-11T09:27:39.455Z,100933.40
2019-05-11T09:32:47.789Z,100933.40
2019-05-11T09:37:55.393Z,100929.28
2019-05-11T09:43:02.443Z,100932.11
2019-05-11T09:48:09.559Z,100940.48
2019-05-11T09:53:17.744Z,100946.17
2019-05-11T09:58:24.612Z,100937.38
2019-05-11T10:03:31.506Z,100931.43
2019-05-11T10:08:38.455Z,100931.43
2019-05-11T10:13:47.608Z,100920.29
2019-05-11T10:18:54.700Z,100927.67
2019-05-11T10:24:05.254Z,100933.98
2019-05-11T10:29:11.312Z,100934.10
2019-05-11T10:34:18.518Z,100942.28
2019-05-11T10:39:27.704Z,100943.92
2019-05-11T10:44:34.467Z,100935.05
2019-05-11T10:49:41.571Z,100935.53
2019-05-11T10:54:50.885Z,100932.81
2019-05-11T10:59:58.109Z,100932.81
2019-05-11T11:05:08.075Z,100928.52
2019-05-11T11:10:15.108Z,100926.70
2019-05-11T11:15:22.572Z,100922.38
2019-05-11T11:20:29.474Z,100922.48
2019-05-11T11:25:37.615Z,100922.48
2019-05-11T11:30:44.584Z,100922.03
2019-05-11T11:35:51.445Z,100920.39
2019-05-11T11:40:58.833Z,100920.39
2019-05-11T11:46:08.251Z,100920.09
2019-05-11T11:51:14.465Z,100913.70
2019-05-11T11:56:21.614Z,100913.70
2019-05-11T12:01:28.570Z,100925.95
2019-05-11T12:06:35.451Z,100918.91
2019-05-11T12:11:44.768Z,100918.91
2019-05-11T12:17:06.721Z,100924.73
2019-05-11T12:22:02.044Z,100924.84
2019-05-11T12:27:09.397Z,100927.58
2019-05-11T12:32:22.725Z,100934.25
2019-05-11T12:37:30.580Z,100926.78
2019-05-11T12:42:38.474Z,100926.38
2019-05-11T12:47:47.752Z,100926.38
2019-05-11T12:52:56.007Z,100923.72
2019-05-11T12:58:03.427Z,100928.89
2019-05-11T13:03:11.464Z,100923.91
2019-05-11T13:08:18.611Z,100929.09
2019-05-11T13:13:25.547Z,100929.09
2019-05-11T13:18:32.482Z,100936.53
2019-05-11T13:23:39.466Z,100941.40
2019-05-11T13:28:48.485Z,100951.07
2019-05-11T13:33:55.433Z,100951.07
2019-05-11T13:39:02.462Z,100951.13
2019-05-11T13:44:09.467Z,100952.09
2019-05-11T13:49:17.871Z,100958.94
2019-05-11T13:54:25.567Z,100958.94
2019-05-11T13:59:33.504Z,100970.66
2019-05-11T14:04:40.586Z,100979.02
2019-05-11T14:09:48.512Z,100982.78
2019-05-11T14:14:57.672Z,100984.73
2019-05-11T14:20:04.585Z,100984.73
2019-05-11T14:25:12.096Z,100987.41
2019-05-11T14:30:19.580Z,100987.41
2019-05-11T14:35:28.044Z,100999.54
2019-05-11T14:40:35.545Z,101012.13
2019-05-11T14:45:42.539Z,101012.13
2019-05-11T14:50:49.447Z,101024.78
2019-05-11T14:55:58.463Z,101024.78
2019-05-11T15:01:05.471Z,101024.78
2019-05-11T15:06:12.577Z,101032.55
2019-05-11T15:11:19.590Z,101039.48
2019-05-11T15:16:27.855Z,101038.39
2019-05-11T15:21:35.415Z,101038.39
2019-05-11T15:28:28.643Z,101044.23
2019-05-11T15:33:38.031Z,101057.02
2019-05-11T15:38:44.452Z,101057.85
2019-05-11T15:43:51.443Z,101068.33
2019-05-11T15:49:03.072Z,101068.89
2019-05-11T15:54:09.917Z,101068.89
2019-05-11T15:59:16.766Z,101074.22
2019-05-11T16:04:23.588Z,101088.70
2019-05-11T16:09:30.570Z,101098.78
2019-05-11T16:14:38.311Z,101108.05
2019-05-11T16:19:45.470Z,101108.05
2019-05-11T16:24:52.568Z,101104.23
2019-05-11T16:29:59.652Z,101117.73
2019-05-11T16:35:08.813Z,101117.73
2019-05-11T16:40:20.186Z,101111.13
2019-05-11T16:45:28.006Z,101102.97
2019-05-11T16:50:34.586Z,101098.18
2019-05-11T16:55:41.475Z,101110.22
2019-05-11T17:00:49.580Z,101111.35
2019-05-11T17:05:58.656Z,101141.51
2019-05-11T17:11:08.001Z,101141.51
2019-05-11T17:16:14.451Z,101145.66
2019-05-11T17:21:21.629Z,101145.66
2019-05-11T17:26:28.612Z,101140.19
2019-05-11T17:31:37.862Z,101156.95
2019-05-11T17:36:46.581Z,101156.95
2019-05-11T17:46:59.280Z,101204.02
2019-05-11T17:52:08.094Z,101215.65
2019-05-11T17:57:15.725Z,101227.96
2019-05-11T18:02:22.575Z,101218.50
2019-05-11T18:07:30.941Z,101222.12
2019-05-11T18:12:39.226Z,101222.12
2019-05-11T18:17:48.472Z,101244.98
2019-05-11T18:22:57.651Z,101249.67
2019-05-11T18:28:04.451Z,101269.02
2019-05-11T18:33:11.579Z,101265.23
2019-05-11T18:38:18.592Z,101284.97
2019-05-11T18:43:27.780Z,101293.41
2019-05-11T18:48:37.966Z,101293.41
2019-05-11T18:53:44.445Z,101308.57
2019-05-11T18:58:53.036Z,101325.39
2019-05-11T19:04:00.273Z,101332.72
2019-05-11T19:09:08.739Z,101339.21
2019-05-11T19:14:15.643Z,101348.72
2019-05-11T19:19:22.602Z,101359.02
2019-05-11T19:24:32.572Z,101376.35
2019-05-11T19:29:39.588Z,101387.23
2019-05-11T19:34:47.791Z,101400.05
2019-05-11T19:39:54.701Z,101400.05
2019-05-11T19:45:01.798Z,101413.42
2019-05-11T19:50:09.260Z,101417.63
2019-05-11T19:55:17.963Z,101428.21
2019-05-11T20:00:28.272Z,101432.12
2019-05-11T20:05:38.253Z,101444.06
2019-05-11T20:10:45.449Z,101440.98
2019-05-11T20:15:52.486Z,101440.98
2019-05-11T20:20:59.587Z,101449.64
2019-05-11T20:26:08.740Z,101449.06
2019-05-11T20:35:38.317Z,101457.69
2019-05-11T20:40:45.593Z,101455.45
2019-05-11T20:45:52.547Z,101476.28
2019-05-11T20:50:59.622Z,101486.84
2019-05-11T20:56:08.532Z,101490.44
2019-05-11T21:01:17.900Z,101490.44
2019-05-11T21:06:25.950Z,101501.02
2019-05-11T21:11:33.036Z,101501.02
2019-05-11T21:16:40.279Z,101519.61
2019-05-11T21:21:53.443Z,101531.84
2019-05-11T21:26:58.421Z,101544.89
2019-05-11T21:32:08.041Z,101558.23
2019-05-11T21:37:14.920Z,101558.23
2019-05-11T21:42:25.136Z,101556.01
2019-05-11T21:47:34.853Z,101559.06
2019-05-11T21:52:42.864Z,101574.34
2019-05-11T21:57:50.245Z,101583.80
2019-05-11T22:02:57.595Z,101593.52
2019-05-11T22:08:04.701Z,101602.98
2019-05-11T22:13:11.777Z,101602.98
2019-05-11T22:18:30.612Z,101608.81
2019-05-11T22:23:28.214Z,101605.49
2019-05-11T22:32:09.611Z,101602.97
2019-05-11T22:37:18.644Z,101635.77
2019-05-11T22:42:27.881Z,101633.83
2019-05-11T22:47:34.438Z,101633.83
2019-05-11T22:52:41.588Z,101643.02
2019-05-11T22:57:48.700Z,101660.50
2019-05-11T23:02:55.775Z,101660.50
2019-05-11T23:08:03.941Z,101665.23
2019-05-11T23:13:12.573Z,101670.79
2019-05-11T23:18:20.710Z,101695.46
2019-05-11T23:23:28.674Z,101695.46
2019-05-11T23:28:37.800Z,101706.58
2019-05-11T23:33:45.103Z,101706.58
2019-05-11T23:38:52.407Z,101707.16
2019-05-11T23:43:59.586Z,101708.28
2019-05-11T23:49:08.613Z,101725.75
2019-05-11T23:54:15.580Z,101723.83
2019-05-11T23:59:22.920Z,101727.72
